PAFA/FAI METAR and TAF weather

Enter ICAO airport designator
Station Type Date Time Source
PAFA METAR 2020/06/01 15:53 UTC NOAA

PAFA 011553Z 04003KT 10SM FEW060 BKN110 BKN200 11/08 A2954 RMK AO2 SLP005 VIRGA W-NW T01110078 $


Station Type Date Time Source
PAFA Decoded METAR 2020/06/01 15:53 UTC NOAA

Fairbanks, Fairbanks International Airport, AK, United States (PAFA) 64-48-14N 147-52-34W 140M
Jun 01, 2020 - 11:53 AM EDT / 2020.06.01 1553 UTC
Wind: from the NE (040 degrees) at 3 MPH (3 KT):0
Visibility: 10 mile(s):0
Sky conditions: mostly cloudy
Temperature: 52.0 F (11.1 C)
Dew Point: 46.0 F (7.8 C)
Relative Humidity: 80%
Pressure (altimeter): 29.54 in. Hg (1000 hPa)
ob: PAFA 011553Z 04003KT 10SM FEW060 BKN110 BKN200 11/08 A2954 RMK AO2 SLP005 VIRGA W-NW T01110078
cycle: 16

Station Type Date Time Source
PAFA TAF 2020/06/01 12:45 UTC NOAA

TAF TAF PAFA 011133Z 0112/0218 04003KT P6SM FEW080 SCT130 BKN200
FM012300 05006KT P6SM -SHRA VCTS SCT050CB BKN100 BKN200
FM021000 05006KT P6SM SCT050 BKN100 BKN200
FM021500 03004KT P6SM FEW050 SCT100

Example: see airport list